createdAt,value
2023-04-22T00:01:56.118Z,47.80
2023-04-22T00:04:25.155Z,47.80
2023-04-22T00:06:52.506Z,47.90
2023-04-22T00:09:19.708Z,48.00
2023-04-22T00:11:46.898Z,48.20
2023-04-22T00:14:14.113Z,48.10
2023-04-22T00:16:41.366Z,48.20
2023-04-22T00:19:08.577Z,48.30
2023-04-22T00:21:37.128Z,48.40
2023-04-22T00:24:04.644Z,48.40
2023-04-22T00:26:31.831Z,48.40
2023-04-22T00:28:59.036Z,48.30
2023-04-22T00:31:26.252Z,48.40
2023-04-22T00:33:54.196Z,48.40
2023-04-22T00:36:21.449Z,48.50
2023-04-22T00:38:53.070Z,48.50
2023-04-22T00:41:20.624Z,48.40
2023-04-22T00:43:47.856Z,48.50
2023-04-22T00:46:16.619Z,48.60
2023-04-22T00:48:44.319Z,48.50
2023-04-22T00:51:11.516Z,48.50
2023-04-22T00:53:38.707Z,48.50
2023-04-22T00:56:07.956Z,48.60
2023-04-22T00:58:35.374Z,48.70
2023-04-22T01:01:05.076Z,48.50
2023-04-22T01:03:33.838Z,48.60
2023-04-22T01:06:01.186Z,48.70
2023-04-22T01:08:30.039Z,48.70
2023-04-22T01:10:57.514Z,48.70
2023-04-22T01:13:26.122Z,48.80
2023-04-22T01:15:54.158Z,48.80
2023-04-22T01:18:21.843Z,48.90
2023-04-22T01:20:49.444Z,49.00
2023-04-22T01:23:21.311Z,49.10
2023-04-22T01:25:49.247Z,49.10
2023-04-22T01:28:16.991Z,49.10
2023-04-22T01:30:44.554Z,49.00
2023-04-22T01:33:12.412Z,49.30
2023-04-22T01:35:39.671Z,49.30
2023-04-22T01:38:09.189Z,49.30
2023-04-22T01:40:38.828Z,49.20
2023-04-22T01:43:06.219Z,49.30
2023-04-22T01:45:33.982Z,49.30
2023-04-22T01:48:01.372Z,49.40
2023-04-22T01:50:28.674Z,49.50
2023-04-22T01:52:56.298Z,49.50
2023-04-22T01:55:23.733Z,49.60
2023-04-22T01:57:52.502Z,49.70
2023-04-22T02:00:19.829Z,49.60
2023-04-22T02:02:48.752Z,49.70
2023-04-22T02:05:17.848Z,49.60
2023-04-22T02:07:46.873Z,49.70
2023-04-22T02:10:16.977Z,49.70
2023-04-22T02:12:44.693Z,49.80
2023-04-22T02:15:16.175Z,49.90
2023-04-22T02:17:43.518Z,49.90
2023-04-22T02:20:12.820Z,50.20
2023-04-22T02:22:42.008Z,50.20
2023-04-22T02:25:12.160Z,50.10
2023-04-22T02:27:39.753Z,50.20
2023-04-22T02:30:08.618Z,50.60
2023-04-22T02:32:38.806Z,50.40
2023-04-22T02:35:06.966Z,50.40
2023-04-22T02:37:34.248Z,50.40
2023-04-22T02:40:01.478Z,50.50
2023-04-22T02:42:30.438Z,50.60
2023-04-22T02:44:57.652Z,50.50
2023-04-22T02:47:25.410Z,50.40
2023-04-22T02:49:53.953Z,50.50
2023-04-22T02:52:21.257Z,50.50
2023-04-22T02:54:48.485Z,50.70
2023-04-22T02:57:15.666Z,50.70
2023-04-22T02:59:42.873Z,50.60
2023-04-22T03:02:11.350Z,50.80
2023-04-22T03:04:54.285Z,50.70
2023-04-22T03:07:22.804Z,51.00
2023-04-22T03:09:50.312Z,51.20
2023-04-22T03:12:17.765Z,51.10
2023-04-22T03:14:46.723Z,51.10
2023-04-22T03:17:14.011Z,51.20
2023-04-22T03:19:41.558Z,51.10
2023-04-22T03:22:09.350Z,51.20
2023-04-22T03:24:38.314Z,51.20
2023-04-22T03:27:07.800Z,51.10
2023-04-22T03:29:35.031Z,51.20
2023-04-22T03:32:02.340Z,51.30
2023-04-22T03:34:29.604Z,51.50
2023-04-22T03:36:56.917Z,51.70
2023-04-22T03:39:25.686Z,51.60
2023-04-22T03:41:54.594Z,51.60
2023-04-22T03:44:21.801Z,51.50
2023-04-22T03:46:49.651Z,51.70
2023-04-22T03:49:24.557Z,51.80
2023-04-22T03:51:51.734Z,52.30
2023-04-22T03:54:24.264Z,52.30
2023-04-22T03:56:54.255Z,52.20
2023-04-22T03:59:24.179Z,52.20
2023-04-22T04:01:53.674Z,52.20
2023-04-22T04:04:25.084Z,52.30
2023-04-22T04:06:58.406Z,52.30
2023-04-22T04:09:27.109Z,52.60
2023-04-22T04:11:56.646Z,52.50
2023-04-22T04:14:24.860Z,52.80
2023-04-22T04:16:52.800Z,52.90
2023-04-22T04:19:26.244Z,52.90
2023-04-22T04:21:54.176Z,53.20
2023-04-22T04:24:22.636Z,53.00
2023-04-22T04:26:52.002Z,53.00
2023-04-22T04:29:25.508Z,53.20
2023-04-22T04:32:05.173Z,53.10
2023-04-22T04:34:34.315Z,53.30
2023-04-22T04:37:02.787Z,53.40
2023-04-22T04:39:39.323Z,53.60
2023-04-22T04:42:07.127Z,53.40
2023-04-22T04:44:43.293Z,53.70
2023-04-22T04:47:12.993Z,53.70
2023-04-22T04:49:41.198Z,53.80
2023-04-22T04:52:11.546Z,53.90
2023-04-22T04:54:39.088Z,53.80
2023-04-22T04:57:06.512Z,53.90
2023-04-22T04:59:34.272Z,54.00
2023-04-22T05:02:03.066Z,53.90
2023-04-22T05:04:32.258Z,53.80
2023-04-22T05:06:59.789Z,54.20
2023-04-22T05:09:28.191Z,54.40
2023-04-22T05:11:55.838Z,54.00
2023-04-22T05:14:23.375Z,54.20
2023-04-22T05:16:50.673Z,54.20
2023-04-22T05:19:20.116Z,54.30
2023-04-22T05:21:48.402Z,54.30
2023-04-22T05:24:17.209Z,54.20
2023-04-22T05:26:44.972Z,54.40
2023-04-22T05:29:16.903Z,54.30
2023-04-22T05:31:44.187Z,54.40
2023-04-22T05:34:12.339Z,54.30
2023-04-22T05:36:41.108Z,54.10
2023-04-22T05:39:08.925Z,54.20
2023-04-22T05:41:36.492Z,54.30
2023-04-22T05:44:07.802Z,54.20
2023-04-22T05:46:35.302Z,54.20
2023-04-22T05:49:02.870Z,54.10
2023-04-22T05:51:50.378Z,54.10
2023-04-22T05:54:20.888Z,54.10
2023-04-22T05:56:48.484Z,54.20
2023-04-22T05:59:17.809Z,54.10
2023-04-22T06:01:46.167Z,53.70
2023-04-22T06:04:18.422Z,53.80
2023-04-22T06:06:45.744Z,53.70
2023-04-22T06:09:15.540Z,53.40
2023-04-22T06:11:42.894Z,53.50
2023-04-22T06:14:10.366Z,53.40
2023-04-22T06:16:38.651Z,53.30
2023-04-22T06:19:07.857Z,53.20
2023-04-22T06:21:37.056Z,53.10
2023-04-22T06:24:06.023Z,52.80
2023-04-22T06:26:34.640Z,52.70
2023-04-22T06:29:05.198Z,52.80
2023-04-22T06:31:33.514Z,52.70
2023-04-22T06:34:00.797Z,52.40
2023-04-22T06:36:30.391Z,52.50
2023-04-22T06:39:02.257Z,52.20
2023-04-22T06:41:50.994Z,52.00
2023-04-22T06:44:39.484Z,51.80
2023-04-22T06:47:16.439Z,51.80
2023-04-22T06:49:50.216Z,51.60
2023-04-22T06:52:36.087Z,51.00
2023-04-22T06:55:04.103Z,51.00
2023-04-22T06:57:32.673Z,50.30
2023-04-22T06:59:59.885Z,50.50
2023-04-22T07:02:28.045Z,50.40
2023-04-22T07:04:55.548Z,50.10
2023-04-22T07:07:22.813Z,50.30
2023-04-22T07:09:50.014Z,49.80
2023-04-22T07:12:17.266Z,49.60
2023-04-22T07:14:46.305Z,50.60
2023-04-22T07:17:13.544Z,49.90
2023-04-22T07:19:41.169Z,49.30
2023-04-22T07:22:08.922Z,49.20
2023-04-22T07:24:36.182Z,49.90
2023-04-22T07:27:03.570Z,49.50
2023-04-22T07:29:30.807Z,49.20
2023-04-22T07:31:59.526Z,49.20
2023-04-22T07:34:26.968Z,48.80
2023-04-22T07:36:54.290Z,48.40
2023-04-22T07:39:22.442Z,49.30
2023-04-22T07:41:50.796Z,49.50
2023-04-22T07:44:21.419Z,49.20
2023-04-22T07:46:50.212Z,50.90
2023-04-22T07:49:19.809Z,50.30
2023-04-22T07:51:47.136Z,49.20
2023-04-22T07:54:14.386Z,50.80
2023-04-22T07:56:41.756Z,49.90
2023-04-22T07:59:09.206Z,49.40
2023-04-22T08:01:36.729Z,48.60
2023-04-22T08:04:04.223Z,48.70
2023-04-22T08:06:33.044Z,48.40
2023-04-22T08:09:00.342Z,48.10
2023-04-22T08:11:27.532Z,47.80
2023-04-22T08:13:54.693Z,47.20
2023-04-22T08:16:22.102Z,45.40
2023-04-22T08:18:49.375Z,46.90
2023-04-22T08:21:16.582Z,46.40
2023-04-22T08:23:45.090Z,47.00
2023-04-22T08:26:15.034Z,46.60
2023-04-22T08:28:42.510Z,45.70
2023-04-22T08:31:11.818Z,45.10
2023-04-22T08:33:39.553Z,45.50
2023-04-22T08:36:08.566Z,44.60
2023-04-22T08:38:35.858Z,44.70
2023-04-22T08:41:06.057Z,43.80
2023-04-22T08:43:34.486Z,44.20
2023-04-22T08:46:02.228Z,44.20
2023-04-22T08:48:29.583Z,43.90
2023-04-22T08:50:57.835Z,44.40
2023-04-22T08:53:25.233Z,43.20
2023-04-22T08:55:55.941Z,43.80
2023-04-22T08:58:25.158Z,43.80
2023-04-22T09:00:52.981Z,42.50
2023-04-22T09:03:21.761Z,42.50
2023-04-22T09:05:52.495Z,42.60
2023-04-22T09:08:20.553Z,42.30
2023-04-22T09:10:47.844Z,42.00
2023-04-22T09:13:16.809Z,41.80
2023-04-22T09:15:46.209Z,41.90
2023-04-22T09:18:17.292Z,41.90
2023-04-22T09:20:46.621Z,42.30
2023-04-22T09:23:14.526Z,42.40
2023-04-22T09:25:42.445Z,41.70
2023-04-22T09:28:12.837Z,41.30
2023-04-22T09:30:40.121Z,41.10
2023-04-22T09:33:08.894Z,40.60
2023-04-22T09:35:37.695Z,40.40
2023-04-22T09:38:07.971Z,41.00
2023-04-22T09:40:36.307Z,39.70
2023-04-22T09:43:06.079Z,40.10
2023-04-22T09:45:34.612Z,41.50
2023-04-22T09:48:07.958Z,41.80
2023-04-22T09:50:37.477Z,40.50
2023-04-22T09:53:06.128Z,39.70
2023-04-22T09:55:36.333Z,41.00
2023-04-22T09:58:08.749Z,40.10
2023-04-22T10:00:39.432Z,41.30
2023-04-22T10:03:08.930Z,39.80
2023-04-22T10:05:39.693Z,39.90
2023-04-22T10:08:08.977Z,40.30
2023-04-22T10:10:37.052Z,39.30
2023-04-22T10:13:05.315Z,38.60
2023-04-22T10:15:34.581Z,39.80
2023-04-22T10:18:02.972Z,38.30
2023-04-22T10:20:31.781Z,39.70
2023-04-22T10:23:03.524Z,38.60
2023-04-22T10:25:31.101Z,39.40
2023-04-22T10:28:03.280Z,39.30
2023-04-22T10:30:32.192Z,37.00
2023-04-22T10:33:34.712Z,35.90
2023-04-22T10:36:10.684Z,37.70
2023-04-22T10:38:40.717Z,36.50
2023-04-22T10:41:13.368Z,36.70
2023-04-22T10:43:41.517Z,36.90
2023-04-22T10:46:50.170Z,37.40
2023-04-22T10:49:22.349Z,37.00
2023-04-22T10:51:51.250Z,36.50
2023-04-22T10:54:57.626Z,35.60
2023-04-22T10:57:37.719Z,35.20
2023-04-22T11:00:51.773Z,35.20
2023-04-22T11:03:27.880Z,35.00
2023-04-22T11:06:15.069Z,35.80
2023-04-22T11:08:45.587Z,35.30
2023-04-22T11:11:14.361Z,36.30
2023-04-22T11:13:43.729Z,34.40
2023-04-22T11:16:11.554Z,35.10
2023-04-22T11:18:39.111Z,33.50
2023-04-22T11:21:08.817Z,33.90
2023-04-22T11:23:36.952Z,33.70
2023-04-22T11:26:06.149Z,32.70
2023-04-22T11:28:34.844Z,33.70
2023-04-22T11:31:04.193Z,34.80
2023-04-22T11:33:33.067Z,32.00
2023-04-22T11:36:00.997Z,32.20
2023-04-22T11:38:28.788Z,33.40
2023-04-22T11:41:00.163Z,32.40
2023-04-22T11:43:27.746Z,32.00
2023-04-22T11:45:58.033Z,32.70
2023-04-22T11:48:25.526Z,31.30
2023-04-22T11:51:09.837Z,31.20
2023-04-22T11:53:38.666Z,31.30
2023-04-22T11:56:06.195Z,31.00
2023-04-22T11:58:33.610Z,30.00
2023-04-22T12:01:02.306Z,29.90
2023-04-22T12:03:31.228Z,29.80
2023-04-22T12:06:00.602Z,29.50
2023-04-22T12:08:32.083Z,29.90
2023-04-22T12:11:01.934Z,27.70
2023-04-22T12:13:31.639Z,29.00
2023-04-22T12:16:01.125Z,27.90
2023-04-22T12:18:31.247Z,28.00
2023-04-22T12:21:08.297Z,27.40
2023-04-22T12:23:42.348Z,29.70
2023-04-22T12:26:09.974Z,28.20
2023-04-22T12:28:38.006Z,28.20
2023-04-22T12:31:05.921Z,27.70
2023-04-22T12:33:37.401Z,27.20
2023-04-22T12:36:05.761Z,27.50
2023-04-22T12:38:33.377Z,27.60
2023-04-22T12:41:01.476Z,27.80
2023-04-22T12:43:28.849Z,27.40
2023-04-22T12:45:56.237Z,25.90
2023-04-22T12:48:23.568Z,27.40
2023-04-22T12:50:52.342Z,26.80
2023-04-22T12:53:20.926Z,25.80
2023-04-22T12:55:48.406Z,27.50
2023-04-22T12:58:15.934Z,25.50
2023-04-22T13:00:43.398Z,25.30
2023-04-22T13:03:11.487Z,26.10
2023-04-22T13:05:39.993Z,25.70
2023-04-22T13:08:08.819Z,25.30
2023-04-22T13:10:36.360Z,26.10
2023-04-22T13:15:39.164Z,25.70
2023-04-22T13:18:06.790Z,26.30
2023-04-22T13:20:34.205Z,26.80
2023-04-22T13:23:02.297Z,26.40
2023-04-22T13:25:31.190Z,25.70
2023-04-22T13:27:58.571Z,24.70
2023-04-22T13:30:26.220Z,26.10
2023-04-22T13:32:55.026Z,25.20
2023-04-22T13:35:22.709Z,25.80
2023-04-22T13:37:50.098Z,25.50
2023-04-22T13:40:17.612Z,26.00
2023-04-22T13:42:46.357Z,27.30
2023-04-22T13:45:13.859Z,25.00
2023-04-22T13:47:41.235Z,25.60
2023-04-22T13:50:09.450Z,25.40
2023-04-22T13:52:36.967Z,26.80
2023-04-22T13:55:05.090Z,27.10
2023-04-22T13:57:32.530Z,27.20
2023-04-22T14:00:01.392Z,25.80
2023-04-22T14:02:39.462Z,25.00
2023-04-22T14:05:07.706Z,25.40
2023-04-22T14:07:35.192Z,26.30
2023-04-22T14:10:02.644Z,25.60
2023-04-22T14:12:30.033Z,25.40
2023-04-22T14:14:57.477Z,25.70
2023-04-22T14:17:27.693Z,24.70
2023-04-22T14:19:55.242Z,24.70
2023-04-22T14:22:22.740Z,25.50
2023-04-22T14:24:50.134Z,24.70
2023-04-22T14:27:17.518Z,25.90
2023-04-22T14:29:46.105Z,26.00
2023-04-22T14:32:13.536Z,25.70
2023-04-22T14:34:42.356Z,26.20
2023-04-22T14:37:09.942Z,26.90
2023-04-22T14:39:37.408Z,25.80
2023-04-22T14:42:05.559Z,26.00
2023-04-22T14:44:32.960Z,26.10
2023-04-22T14:47:00.464Z,26.50
2023-04-22T14:49:27.954Z,26.80
2023-04-22T14:51:56.947Z,27.00
2023-04-22T14:54:25.672Z,27.30
2023-04-22T14:56:55.277Z,26.30
2023-04-22T14:59:22.702Z,26.40
2023-04-22T15:01:50.231Z,27.00
2023-04-22T15:04:19.261Z,26.00
2023-04-22T15:06:46.949Z,26.10
2023-04-22T15:09:15.863Z,27.90
2023-04-22T15:11:43.254Z,25.50
2023-04-22T15:14:10.655Z,26.60
2023-04-22T15:16:38.147Z,26.20
2023-04-22T15:19:05.808Z,26.50
2023-04-22T15:21:34.794Z,25.50
2023-04-22T15:24:02.238Z,27.40
2023-04-22T15:26:31.486Z,26.40
2023-04-22T15:28:58.876Z,26.20
2023-04-22T15:31:28.222Z,27.10
2023-04-22T15:33:56.248Z,26.60
2023-04-22T15:36:23.715Z,27.30
2023-04-22T15:38:56.602Z,26.90
2023-04-22T15:41:29.366Z,26.20
2023-04-22T15:43:59.880Z,27.20
2023-04-22T15:46:29.670Z,27.00
2023-04-22T15:48:57.454Z,27.60
2023-04-22T15:51:25.273Z,27.20
2023-04-22T15:53:53.518Z,26.50
2023-04-22T15:56:21.014Z,27.30
2023-04-22T15:58:48.491Z,26.90
2023-04-22T16:01:19.723Z,27.40
2023-04-22T16:03:48.376Z,27.30
2023-04-22T16:06:17.024Z,27.00
2023-04-22T16:08:45.491Z,27.90
2023-04-22T16:11:14.737Z,26.80
2023-04-22T16:13:42.337Z,27.90
2023-04-22T16:16:09.990Z,26.90
2023-04-22T16:18:39.494Z,28.60
2023-04-22T16:21:07.957Z,26.50
2023-04-22T16:23:35.615Z,27.60
2023-04-22T16:26:04.548Z,28.30
2023-04-22T16:28:32.349Z,27.80
2023-04-22T16:31:00.475Z,27.90
2023-04-22T16:33:28.434Z,27.60
2023-04-22T16:35:57.412Z,27.60
2023-04-22T16:38:24.863Z,28.20
2023-04-22T16:40:54.276Z,27.90
2023-04-22T16:43:21.959Z,29.10
2023-04-22T16:45:49.466Z,28.40
2023-04-22T16:48:16.942Z,28.50
2023-04-22T16:50:44.320Z,28.70
2023-04-22T16:53:13.114Z,29.10
2023-04-22T16:55:41.464Z,28.60
2023-04-22T16:58:09.038Z,29.10
2023-04-22T17:00:36.541Z,30.20
2023-04-22T17:03:05.282Z,29.60
2023-04-22T17:05:32.868Z,30.20
2023-04-22T17:08:00.360Z,30.50
2023-04-22T17:10:29.275Z,30.20
2023-04-22T17:12:56.679Z,30.60
2023-04-22T17:15:24.172Z,30.30
2023-04-22T17:17:51.755Z,30.70
2023-04-22T17:20:19.097Z,31.40
2023-04-22T17:22:46.618Z,30.80
2023-04-22T17:25:13.875Z,31.80
2023-04-22T17:27:42.353Z,31.50
2023-04-22T17:30:10.308Z,31.50
2023-04-22T17:32:37.548Z,32.00
2023-04-22T17:35:05.855Z,32.20
2023-04-22T17:37:33.078Z,32.10
2023-04-22T17:40:00.311Z,32.80
2023-04-22T17:42:38.752Z,32.40
2023-04-22T17:45:13.985Z,32.80
2023-04-22T17:47:41.370Z,32.80
2023-04-22T17:50:09.022Z,32.50
2023-04-22T17:52:36.291Z,33.50
2023-04-22T17:55:03.805Z,33.10
2023-04-22T17:57:31.221Z,33.60
2023-04-22T17:59:58.472Z,33.60
2023-04-22T18:02:27.171Z,33.90
2023-04-22T18:04:54.496Z,33.70
2023-04-22T18:07:21.846Z,34.00
2023-04-22T18:09:49.636Z,34.10
2023-04-22T18:12:17.093Z,34.10
2023-04-22T18:14:44.604Z,34.40
2023-04-22T18:17:13.414Z,34.10
2023-04-22T18:19:44.008Z,34.40
2023-04-22T18:22:11.816Z,34.60
2023-04-22T18:24:39.300Z,35.00
2023-04-22T18:27:06.689Z,35.10
2023-04-22T18:29:33.994Z,35.10
2023-04-22T18:32:01.270Z,35.30
2023-04-22T18:34:29.310Z,35.10
2023-04-22T18:36:57.911Z,35.00
2023-04-22T18:39:25.351Z,35.70
2023-04-22T18:41:52.661Z,35.80
2023-04-22T18:44:20.439Z,36.00
2023-04-22T18:46:47.648Z,35.50
2023-04-22T18:49:14.846Z,36.10
2023-04-22T18:51:42.246Z,36.20
2023-04-22T18:54:11.053Z,36.30
2023-04-22T18:56:38.227Z,36.40
2023-04-22T18:59:05.590Z,36.50
2023-04-22T19:01:33.774Z,36.80
2023-04-22T19:04:01.802Z,37.00
2023-04-22T19:06:29.550Z,37.10
2023-04-22T19:08:57.015Z,36.70
2023-04-22T19:11:25.764Z,37.50
2023-04-22T19:13:53.704Z,37.60
2023-04-22T19:16:22.174Z,37.00
2023-04-22T19:18:51.271Z,37.50
2023-04-22T19:21:19.731Z,37.40
2023-04-22T19:23:47.211Z,37.50
2023-04-22T19:26:14.543Z,37.50
2023-04-22T19:28:47.062Z,37.70
2023-04-22T19:31:14.560Z,37.90
2023-04-22T19:33:41.887Z,37.90
2023-04-22T19:36:09.310Z,37.90
2023-04-22T19:38:36.542Z,38.00
2023-04-22T19:41:04.058Z,38.30
2023-04-22T19:43:31.268Z,38.40
2023-04-22T19:45:59.806Z,38.50
2023-04-22T19:48:27.655Z,38.40
2023-04-22T19:50:55.234Z,38.70
2023-04-22T19:53:23.009Z,38.70
2023-04-22T19:55:50.576Z,38.80
2023-04-22T19:58:19.004Z,38.90
2023-04-22T20:00:46.732Z,39.00
2023-04-22T20:03:16.035Z,39.10
2023-04-22T20:05:43.858Z,39.30
2023-04-22T20:08:13.471Z,39.30
2023-04-22T20:10:41.415Z,39.20
2023-04-22T20:13:09.136Z,39.30
2023-04-22T20:15:37.419Z,39.50
2023-04-22T20:18:05.110Z,39.40
2023-04-22T20:20:34.913Z,39.80
2023-04-22T20:23:09.716Z,39.80
2023-04-22T20:25:39.675Z,39.90
2023-04-22T20:28:07.415Z,40.10
2023-04-22T20:30:35.334Z,40.10
2023-04-22T20:33:02.923Z,40.20
2023-04-22T20:35:31.958Z,40.10
2023-04-22T20:38:02.464Z,40.20
2023-04-22T20:40:30.521Z,40.60
2023-04-22T20:43:01.154Z,40.10
2023-04-22T20:45:28.565Z,40.50
2023-04-22T20:47:58.193Z,40.40
2023-04-22T20:50:26.485Z,40.60
2023-04-22T20:52:54.291Z,40.80
2023-04-22T20:55:22.785Z,40.70
2023-04-22T20:57:50.099Z,40.90
2023-04-22T21:00:17.711Z,41.10
2023-04-22T21:02:46.979Z,41.10
2023-04-22T21:05:14.621Z,41.30
2023-04-22T21:07:43.861Z,41.50
2023-04-22T21:10:11.926Z,41.60
2023-04-22T21:12:41.144Z,41.50
2023-04-22T21:15:09.692Z,41.40
2023-04-22T21:17:40.614Z,41.60
2023-04-22T21:20:09.454Z,41.50
2023-04-22T21:22:37.410Z,41.50
2023-04-22T21:25:05.946Z,41.30
2023-04-22T21:27:33.608Z,41.60
2023-04-22T21:30:02.368Z,41.50
2023-04-22T21:32:29.631Z,41.30
2023-04-22T21:34:56.867Z,41.70
2023-04-22T21:37:24.122Z,41.80
2023-04-22T21:39:51.349Z,41.70
2023-04-22T21:42:18.566Z,41.80
2023-04-22T21:44:49.640Z,42.00
2023-04-22T21:47:18.321Z,41.90
2023-04-22T21:49:46.915Z,42.00
2023-04-22T21:52:14.136Z,42.20
2023-04-22T21:54:41.534Z,42.20
2023-04-22T21:57:09.082Z,42.00
2023-04-22T21:59:36.329Z,42.20
2023-04-22T22:02:03.553Z,42.00
2023-04-22T22:04:32.192Z,42.20
2023-04-22T22:06:59.450Z,42.40
2023-04-22T22:09:26.754Z,42.40
2023-04-22T22:11:53.962Z,42.40
2023-04-22T22:14:21.155Z,42.30
2023-04-22T22:16:49.830Z,42.40
2023-04-22T22:19:17.236Z,42.70
2023-04-22T22:21:45.880Z,42.70
2023-04-22T22:24:13.127Z,42.80
2023-04-22T22:26:41.131Z,42.70
2023-04-22T22:29:15.137Z,42.90
2023-04-22T22:31:42.448Z,43.00
2023-04-22T22:34:09.715Z,42.90
2023-04-22T22:36:37.021Z,42.90
2023-04-22T22:39:05.586Z,42.80
2023-04-22T22:41:32.800Z,43.20
2023-04-22T22:44:00.555Z,43.00
2023-04-22T22:46:27.813Z,43.10
2023-04-22T22:48:55.566Z,43.20
2023-04-22T22:51:22.794Z,43.40
2023-04-22T22:53:50.196Z,43.10
2023-04-22T22:56:20.788Z,43.20
2023-04-22T22:58:48.197Z,43.30
2023-04-22T23:01:15.879Z,43.20
2023-04-22T23:03:43.405Z,43.30
2023-04-22T23:06:11.663Z,43.50
2023-04-22T23:08:38.907Z,43.40
2023-04-22T23:11:06.399Z,43.60
2023-04-22T23:13:34.968Z,43.60
2023-04-22T23:16:02.348Z,43.60
2023-04-22T23:18:30.053Z,43.80
2023-04-22T23:21:06.975Z,43.80
2023-04-22T23:23:37.214Z,43.90
2023-04-22T23:26:05.503Z,44.00
2023-04-22T23:28:33.397Z,44.20
2023-04-22T23:31:03.928Z,44.20
2023-04-22T23:33:34.287Z,44.10
2023-04-22T23:36:04.756Z,44.30
2023-04-22T23:38:32.065Z,44.30
2023-04-22T23:40:59.359Z,44.60
2023-04-22T23:43:26.736Z,44.60
2023-04-22T23:45:54.196Z,44.60
2023-04-22T23:48:22.984Z,44.80
2023-04-22T23:50:50.452Z,44.70
2023-04-22T23:53:17.786Z,44.90
2023-04-22T23:55:45.608Z,44.90
2023-04-22T23:58:13.962Z,44.90
